createdAt,value
2022-08-17T00:01:52.845Z,5.90
2022-08-17T00:04:25.319Z,5.38
2022-08-17T00:06:53.648Z,6.03
2022-08-17T00:09:23.960Z,5.22
2022-08-17T00:12:41.651Z,5.60
2022-08-17T00:14:52.985Z,5.25
2022-08-17T00:17:23.390Z,5.80
2022-08-17T00:19:54.202Z,5.10
2022-08-17T00:22:36.492Z,5.57
2022-08-17T00:25:09.724Z,6.00
2022-08-17T00:27:40.933Z,6.03
2022-08-17T00:30:18.000Z,6.78
2022-08-17T00:33:12.526Z,6.18
2022-08-17T00:35:53.187Z,6.60
2022-08-17T00:38:23.202Z,6.40
2022-08-17T00:41:01.733Z,6.22
2022-08-17T00:43:46.706Z,6.68
2022-08-17T00:46:28.783Z,6.13
2022-08-17T00:48:58.347Z,6.68
2022-08-17T00:51:44.201Z,6.05
2022-08-17T00:54:41.013Z,6.30
2022-08-17T00:57:40.195Z,6.60
2022-08-17T01:00:27.683Z,7.05
2022-08-17T01:03:07.357Z,6.90
2022-08-17T01:05:42.231Z,6.80
2022-08-17T01:08:18.910Z,6.90
2022-08-17T01:11:01.809Z,6.53
2022-08-17T01:13:42.564Z,7.22
2022-08-17T01:16:37.751Z,7.53
2022-08-17T01:19:21.075Z,7.32
2022-08-17T01:22:06.399Z,6.80
2022-08-17T01:24:39.815Z,7.38
2022-08-17T01:27:13.705Z,6.93
2022-08-17T01:29:55.400Z,7.80
2022-08-17T01:32:22.510Z,7.57
2022-08-17T01:34:51.016Z,6.97
2022-08-17T01:37:21.000Z,7.07
2022-08-17T01:39:52.917Z,8.00
2022-08-17T01:42:44.182Z,7.07
2022-08-17T01:45:23.183Z,7.20
2022-08-17T01:47:51.591Z,6.80
2022-08-17T01:50:26.776Z,7.25
2022-08-17T01:53:04.572Z,7.22
2022-08-17T01:55:39.726Z,7.32
2022-08-17T01:58:09.985Z,7.50
2022-08-17T02:01:00.021Z,7.32
2022-08-17T02:03:29.218Z,7.25
2022-08-17T02:05:56.471Z,7.35
2022-08-17T02:08:36.995Z,8.15
2022-08-17T02:11:11.953Z,7.90
2022-08-17T02:13:39.860Z,7.70
2022-08-17T02:16:07.015Z,7.32
2022-08-17T02:18:34.160Z,7.45
2022-08-17T02:21:02.353Z,7.43
2022-08-17T02:23:32.471Z,8.00
2022-08-17T02:26:01.296Z,7.55
2022-08-17T02:28:29.445Z,7.68
2022-08-17T02:31:02.669Z,8.18
2022-08-17T02:33:42.611Z,7.97
2022-08-17T02:36:12.308Z,8.15
2022-08-17T02:38:40.868Z,7.70
2022-08-17T02:41:08.648Z,7.32
2022-08-17T02:43:36.296Z,8.00
2022-08-17T02:46:03.444Z,7.70
2022-08-17T02:48:32.023Z,7.50
2022-08-17T02:51:01.138Z,7.60
2022-08-17T02:53:35.579Z,7.00
2022-08-17T02:56:04.312Z,7.88
2022-08-17T02:58:35.301Z,7.70
2022-08-17T03:01:05.204Z,7.63
2022-08-17T03:03:32.995Z,7.82
2022-08-17T03:06:00.397Z,7.75
2022-08-17T03:08:28.315Z,7.70
2022-08-17T03:10:55.545Z,7.45
2022-08-17T03:13:23.397Z,7.32
2022-08-17T03:15:51.140Z,7.38
2022-08-17T03:18:24.841Z,7.18
2022-08-17T03:20:59.176Z,7.55
2022-08-17T03:23:29.569Z,7.53
2022-08-17T03:26:01.021Z,7.90
2022-08-17T03:28:29.512Z,7.88
2022-08-17T03:30:56.740Z,8.10
2022-08-17T03:33:24.072Z,7.95
2022-08-17T03:35:51.826Z,7.50
2022-08-17T03:38:20.215Z,8.15
2022-08-17T03:40:59.108Z,7.55
2022-08-17T03:43:29.515Z,8.02
2022-08-17T03:46:27.823Z,8.35
2022-08-17T03:49:15.414Z,8.15
2022-08-17T03:52:01.229Z,8.32
2022-08-17T03:54:47.039Z,8.23
2022-08-17T03:57:14.236Z,7.93
2022-08-17T03:59:42.000Z,8.13
2022-08-17T04:02:24.551Z,9.38
2022-08-17T04:04:52.750Z,8.70
2022-08-17T04:07:26.066Z,8.02
2022-08-17T04:09:53.535Z,8.50
2022-08-17T04:12:24.535Z,8.27
2022-08-17T04:14:54.734Z,8.45
2022-08-17T04:17:25.343Z,8.35
2022-08-17T04:19:53.444Z,8.02
2022-08-17T04:22:32.089Z,8.35
2022-08-17T04:25:19.314Z,7.40
2022-08-17T04:27:46.719Z,8.40
2022-08-17T04:30:14.079Z,8.10
2022-08-17T04:33:04.386Z,8.02
2022-08-17T04:35:47.271Z,8.02
2022-08-17T04:38:18.993Z,7.88
2022-08-17T04:41:04.523Z,7.97
2022-08-17T04:43:33.306Z,7.97
2022-08-17T04:46:04.846Z,7.53
2022-08-17T04:48:38.677Z,7.50
2022-08-17T04:51:27.353Z,8.38
2022-08-17T04:54:02.214Z,7.32
2022-08-17T04:56:30.990Z,6.85
2022-08-17T04:59:05.079Z,7.75
2022-08-17T05:01:35.470Z,7.78
2022-08-17T05:04:33.459Z,7.03
2022-08-17T05:06:57.199Z,7.60
2022-08-17T05:09:24.506Z,7.43
2022-08-17T05:11:51.591Z,7.13
2022-08-17T05:14:18.732Z,7.53
2022-08-17T05:16:48.671Z,7.32
2022-08-17T05:19:15.842Z,7.88
2022-08-17T05:21:43.123Z,7.55
2022-08-17T05:24:38.466Z,7.38
2022-08-17T05:27:02.625Z,6.85
2022-08-17T05:29:35.627Z,7.63
2022-08-17T05:32:39.054Z,7.43
2022-08-17T05:35:01.402Z,7.15
2022-08-17T05:37:28.559Z,7.00
2022-08-17T05:39:55.718Z,7.25
2022-08-17T05:42:23.000Z,7.00
2022-08-17T05:44:50.182Z,7.30
2022-08-17T05:47:18.501Z,7.70
2022-08-17T05:49:45.711Z,7.63
2022-08-17T05:52:31.131Z,7.30
2022-08-17T05:55:13.327Z,7.60
2022-08-17T05:57:53.580Z,7.35
2022-08-17T06:01:04.210Z,7.65
2022-08-17T06:03:59.416Z,7.55
2022-08-17T06:07:00.720Z,7.40
2022-08-17T06:09:45.868Z,7.60
2022-08-17T06:12:27.947Z,7.63
2022-08-17T06:15:01.624Z,7.25
2022-08-17T06:17:30.092Z,7.60
2022-08-17T06:20:03.252Z,8.05
2022-08-17T06:22:38.649Z,7.70
2022-08-17T06:25:19.147Z,7.70
2022-08-17T06:28:03.166Z,7.25
2022-08-17T06:30:58.571Z,8.15
2022-08-17T06:33:34.435Z,7.13
2022-08-17T06:36:29.482Z,7.63
2022-08-17T06:39:16.884Z,7.53
2022-08-17T06:41:55.142Z,7.40
2022-08-17T06:44:43.583Z,8.00
2022-08-17T06:47:28.756Z,6.82
2022-08-17T06:50:08.802Z,6.90
2022-08-17T06:52:50.102Z,7.05
2022-08-17T06:55:37.891Z,6.57
2022-08-17T06:58:15.687Z,7.05
2022-08-17T07:00:47.301Z,7.25
2022-08-17T07:03:36.027Z,6.85
2022-08-17T07:06:19.816Z,7.00
2022-08-17T07:09:03.933Z,7.00
2022-08-17T07:11:35.732Z,7.30
2022-08-17T07:14:27.071Z,7.18
2022-08-17T07:16:57.331Z,6.45
2022-08-17T07:19:33.117Z,7.53
2022-08-17T07:22:22.132Z,7.25
2022-08-17T07:24:59.759Z,7.30
2022-08-17T07:27:31.242Z,7.40
2022-08-17T07:30:10.838Z,6.72
2022-08-17T07:32:51.348Z,7.00
2022-08-17T07:35:31.342Z,7.10
2022-08-17T07:38:29.382Z,7.10
2022-08-17T07:41:02.775Z,7.03
2022-08-17T07:43:32.526Z,7.20
2022-08-17T07:46:30.319Z,7.28
2022-08-17T07:49:08.351Z,6.28
2022-08-17T07:51:44.250Z,7.32
2022-08-17T07:54:22.542Z,7.32
2022-08-17T07:56:53.981Z,7.45
2022-08-17T07:59:36.852Z,6.60
2022-08-17T08:02:31.881Z,6.88
2022-08-17T08:05:13.182Z,6.85
2022-08-17T08:07:56.107Z,7.20
2022-08-17T08:10:39.116Z,6.20
2022-08-17T08:13:25.891Z,6.40
2022-08-17T08:15:56.657Z,7.07
2022-08-17T08:18:53.438Z,6.90
2022-08-17T08:21:29.239Z,7.53
2022-08-17T08:24:00.588Z,7.13
2022-08-17T08:26:34.241Z,7.18
2022-08-17T08:29:18.441Z,7.78
2022-08-17T08:31:48.632Z,6.60
2022-08-17T08:34:53.227Z,7.30
2022-08-17T08:37:33.743Z,7.07
2022-08-17T08:40:42.080Z,7.03
2022-08-17T08:44:00.962Z,7.00
2022-08-17T08:46:32.378Z,6.93
2022-08-17T08:50:01.813Z,6.85
2022-08-17T08:52:57.572Z,6.28
2022-08-17T08:55:56.982Z,6.55
2022-08-17T08:58:54.172Z,6.45
2022-08-17T09:01:39.484Z,7.63
2022-08-17T09:05:10.689Z,6.50
2022-08-17T09:07:58.697Z,7.20
2022-08-17T09:10:52.206Z,6.88
2022-08-17T09:13:58.143Z,6.55
2022-08-17T09:16:45.192Z,6.35
2022-08-17T09:19:19.662Z,6.10
2022-08-17T09:22:11.676Z,6.60
2022-08-17T09:25:04.922Z,7.13
2022-08-17T09:27:48.312Z,6.45
2022-08-17T09:30:15.777Z,6.78
2022-08-17T09:32:47.271Z,6.80
2022-08-17T09:35:20.325Z,6.10
2022-08-17T09:38:22.918Z,5.97
2022-08-17T09:40:57.148Z,5.80
2022-08-17T09:43:55.592Z,6.15
2022-08-17T09:46:28.822Z,6.88
2022-08-17T09:49:27.361Z,5.28
2022-08-17T09:52:06.107Z,5.05
2022-08-17T09:54:40.559Z,5.30
2022-08-17T09:57:30.347Z,5.38
2022-08-17T10:00:19.072Z,5.60
2022-08-17T10:02:58.400Z,5.93
2022-08-17T10:05:47.216Z,5.43
2022-08-17T10:08:23.549Z,5.18
2022-08-17T10:11:09.330Z,5.20
2022-08-17T10:14:02.895Z,4.88
2022-08-17T10:16:56.655Z,4.93
2022-08-17T10:19:38.415Z,5.32
2022-08-17T10:22:42.305Z,5.10
2022-08-17T10:25:53.555Z,4.60
2022-08-17T10:28:32.225Z,5.18
2022-08-17T10:31:30.973Z,5.13
2022-08-17T10:34:27.485Z,5.22
2022-08-17T10:37:33.612Z,5.10
2022-08-17T10:40:09.869Z,5.03
2022-08-17T10:42:43.869Z,5.35
2022-08-17T10:45:29.705Z,5.03
2022-08-17T10:48:05.234Z,4.70
2022-08-17T10:51:00.359Z,4.72
2022-08-17T10:53:33.715Z,4.40
2022-08-17T10:56:13.289Z,5.15
2022-08-17T10:58:57.452Z,4.70
2022-08-17T11:01:47.761Z,4.70
2022-08-17T11:04:39.267Z,4.63
2022-08-17T11:07:44.035Z,4.70
2022-08-17T11:10:20.886Z,4.88
2022-08-17T11:13:08.994Z,4.90
2022-08-17T11:16:16.459Z,4.18
2022-08-17T11:19:10.529Z,4.30
2022-08-17T11:21:56.758Z,4.55
2022-08-17T11:24:40.083Z,4.65
2022-08-17T11:27:31.158Z,5.15
2022-08-17T11:30:14.873Z,5.32
2022-08-17T11:32:52.907Z,5.30
2022-08-17T11:35:26.839Z,5.00
2022-08-17T11:38:17.093Z,4.53
2022-08-17T11:41:05.634Z,5.38
2022-08-17T11:44:11.710Z,4.95
2022-08-17T11:47:08.225Z,4.97
2022-08-17T11:50:32.069Z,4.70
2022-08-17T11:52:59.221Z,4.13
2022-08-17T11:55:36.342Z,4.38
2022-08-17T11:58:42.969Z,4.75
2022-08-17T12:01:24.514Z,5.13
2022-08-17T12:04:12.859Z,4.90
2022-08-17T12:06:52.360Z,4.65
2022-08-17T12:09:24.794Z,4.75
2022-08-17T12:12:13.864Z,4.65
2022-08-17T12:17:41.919Z,4.72
2022-08-17T12:20:33.481Z,4.70
2022-08-17T12:23:44.144Z,4.47
2022-08-17T12:26:31.841Z,4.32
2022-08-17T12:29:03.249Z,4.63
2022-08-17T12:31:43.311Z,4.55
2022-08-17T12:34:24.493Z,4.13
2022-08-17T12:36:53.969Z,3.85
2022-08-17T12:39:24.922Z,4.03
2022-08-17T12:42:01.977Z,3.63
2022-08-17T12:44:46.145Z,3.70
2022-08-17T12:47:22.761Z,3.85
2022-08-17T12:49:53.147Z,3.95
2022-08-17T12:52:20.419Z,3.72
2022-08-17T12:54:55.638Z,3.88
2022-08-17T12:57:27.721Z,3.83
2022-08-17T13:00:02.053Z,4.13
2022-08-17T13:02:41.853Z,3.50
2022-08-17T13:05:25.269Z,4.05
2022-08-17T13:07:57.884Z,4.18
2022-08-17T13:10:33.361Z,3.90
2022-08-17T13:13:05.634Z,3.65
2022-08-17T13:15:44.734Z,4.10
2022-08-17T13:18:40.584Z,3.85
2022-08-17T13:21:28.408Z,3.60
2022-08-17T13:24:00.066Z,4.10
2022-08-17T13:26:38.957Z,3.95
2022-08-17T13:29:16.929Z,3.92
2022-08-17T13:31:53.020Z,4.20
2022-08-17T13:34:28.469Z,3.92
2022-08-17T13:37:27.315Z,3.92
2022-08-17T13:40:12.062Z,4.10
2022-08-17T13:42:51.843Z,3.80
2022-08-17T13:45:36.647Z,4.50
2022-08-17T13:48:11.121Z,3.78
2022-08-17T13:50:59.809Z,4.22
2022-08-17T13:53:33.218Z,4.35
2022-08-17T13:56:33.364Z,4.05
2022-08-17T13:59:12.909Z,3.92
2022-08-17T14:01:42.265Z,4.20
2022-08-17T14:04:19.881Z,4.20
2022-08-17T14:06:54.996Z,4.20
2022-08-17T14:09:26.034Z,4.80
2022-08-17T14:11:55.008Z,4.70
2022-08-17T14:14:23.432Z,4.03
2022-08-17T14:16:52.026Z,4.70
2022-08-17T14:19:22.396Z,3.90
2022-08-17T14:21:50.258Z,4.20
2022-08-17T14:24:29.424Z,4.35
2022-08-17T14:26:57.630Z,4.28
2022-08-17T14:29:28.015Z,4.63
2022-08-17T14:31:56.960Z,4.38
2022-08-17T14:34:25.765Z,4.20
2022-08-17T14:36:53.615Z,4.15
2022-08-17T14:39:21.225Z,4.38
2022-08-17T14:41:49.245Z,4.13
2022-08-17T14:44:16.880Z,4.13
2022-08-17T14:46:45.189Z,4.00
2022-08-17T14:49:16.597Z,4.30
2022-08-17T14:51:44.687Z,4.35
2022-08-17T14:54:33.026Z,4.35
2022-08-17T14:57:23.110Z,3.83
2022-08-17T14:59:54.231Z,4.13
2022-08-17T15:02:29.768Z,4.10
2022-08-17T15:05:06.136Z,4.00
2022-08-17T15:07:33.647Z,4.15
2022-08-17T15:10:02.368Z,4.38
2022-08-17T15:12:34.127Z,4.25
2022-08-17T15:15:05.289Z,4.13
2022-08-17T15:17:44.298Z,3.70
2022-08-17T15:20:22.170Z,4.00
2022-08-17T15:22:50.159Z,4.43
2022-08-17T15:25:19.302Z,4.20
2022-08-17T15:27:47.068Z,4.05
2022-08-17T15:30:15.095Z,3.85
2022-08-17T15:32:45.790Z,3.90
2022-08-17T15:35:19.083Z,3.78
2022-08-17T15:37:54.312Z,3.83
2022-08-17T15:40:21.473Z,3.70
2022-08-17T15:42:51.227Z,3.58
2022-08-17T15:45:23.202Z,3.95
2022-08-17T15:47:50.889Z,3.65
2022-08-17T15:50:18.450Z,3.90
2022-08-17T15:52:47.677Z,3.85
2022-08-17T15:55:16.139Z,3.55
2022-08-17T15:57:44.304Z,3.92
2022-08-17T16:00:11.770Z,3.60
2022-08-17T16:03:14.118Z,3.63
2022-08-17T16:05:30.151Z,3.92
2022-08-17T16:07:59.855Z,3.72
2022-08-17T16:10:35.075Z,3.80
2022-08-17T16:13:02.745Z,3.85
2022-08-17T16:15:32.031Z,3.60
2022-08-17T16:17:59.804Z,3.90
2022-08-17T16:20:27.758Z,3.92
2022-08-17T16:22:57.021Z,3.60
2022-08-17T16:25:38.389Z,3.50
2022-08-17T16:28:35.989Z,3.22
2022-08-17T17:39:58.641Z,3.60
2022-08-17T17:42:34.130Z,3.97
2022-08-17T17:45:33.060Z,3.65
2022-08-17T17:48:01.794Z,3.83
2022-08-17T17:50:54.410Z,3.70
2022-08-17T17:53:51.951Z,3.60
2022-08-17T17:56:47.550Z,3.72
2022-08-17T17:59:33.585Z,3.95
2022-08-17T18:02:52.100Z,4.20
2022-08-17T18:05:51.172Z,3.90
2022-08-17T18:08:41.890Z,3.92
2022-08-17T18:11:25.440Z,4.20
2022-08-17T18:14:33.303Z,3.88
2022-08-17T18:17:10.603Z,3.75
2022-08-17T18:19:44.430Z,3.65
2022-08-17T18:22:24.529Z,3.90
2022-08-17T18:24:59.645Z,3.75
2022-08-17T18:27:52.505Z,3.78
2022-08-17T18:30:30.064Z,3.97
2022-08-17T18:33:23.609Z,3.65
2022-08-17T18:35:58.776Z,4.00
2022-08-17T18:38:42.893Z,4.30
2022-08-17T18:41:26.055Z,3.65
2022-08-17T18:44:16.829Z,3.80
2022-08-17T18:46:44.189Z,3.83
2022-08-17T18:49:28.898Z,3.95
2022-08-17T18:52:29.328Z,4.25
2022-08-17T18:55:23.181Z,4.20
2022-08-17T18:58:13.565Z,4.43
2022-08-17T19:00:48.805Z,3.92
2022-08-17T19:03:25.390Z,3.90
2022-08-17T19:06:52.291Z,3.72
2022-08-17T19:10:04.137Z,3.65
2022-08-17T19:13:03.192Z,4.07
2022-08-17T19:16:12.148Z,4.28
2022-08-17T19:19:24.976Z,4.10
2022-08-17T19:22:02.780Z,3.80
2022-08-17T19:24:47.436Z,3.92
2022-08-17T19:27:41.762Z,5.45
2022-08-17T19:30:28.505Z,4.13
2022-08-17T19:32:58.615Z,4.20
2022-08-17T19:35:52.857Z,4.40
2022-08-17T19:38:45.470Z,3.95
2022-08-17T19:41:41.033Z,3.97
2022-08-17T19:44:51.986Z,3.92
2022-08-17T19:47:55.904Z,4.55
2022-08-17T19:51:03.311Z,4.28
2022-08-17T19:54:05.337Z,4.43
2022-08-17T19:57:13.663Z,4.32
2022-08-17T20:00:17.410Z,4.50
2022-08-17T20:02:58.882Z,4.10
2022-08-17T20:06:11.935Z,4.30
2022-08-17T20:08:50.094Z,4.20
2022-08-17T20:11:56.986Z,4.13
2022-08-17T20:14:57.329Z,4.22
2022-08-17T20:17:32.035Z,4.13
2022-08-17T20:20:43.535Z,4.00
2022-08-17T20:23:53.250Z,4.32
2022-08-17T20:26:55.233Z,4.05
2022-08-17T20:29:56.031Z,4.55
2022-08-17T20:32:29.781Z,4.35
2022-08-17T20:35:21.128Z,4.47
2022-08-17T20:38:16.611Z,4.30
2022-08-17T20:41:07.440Z,3.80
2022-08-17T20:43:45.164Z,3.83
2022-08-17T20:46:30.710Z,4.22
2022-08-17T20:49:25.477Z,4.38
2022-08-17T20:52:13.785Z,4.50
2022-08-17T20:54:44.075Z,4.70
2022-08-17T20:57:36.464Z,4.93
2022-08-17T21:00:32.131Z,4.30
2022-08-17T21:03:49.270Z,4.07
2022-08-17T21:06:19.370Z,4.72
2022-08-17T21:09:31.101Z,4.50
2022-08-17T21:12:05.667Z,4.40
2022-08-17T21:15:19.156Z,4.70
2022-08-17T21:18:29.989Z,4.72
2022-08-17T21:21:46.790Z,4.32
2022-08-17T21:24:36.295Z,4.50
2022-08-17T21:27:31.615Z,5.07
2022-08-17T21:30:11.845Z,4.40
2022-08-17T21:33:13.420Z,4.03
2022-08-17T21:36:01.542Z,4.57
2022-08-17T21:38:40.520Z,4.70
2022-08-17T21:41:18.870Z,4.70
2022-08-17T21:43:53.399Z,4.50
2022-08-17T21:46:38.680Z,4.38
2022-08-17T21:49:14.302Z,4.55
2022-08-17T21:51:54.978Z,5.03
2022-08-17T21:54:41.290Z,4.53
2022-08-17T21:57:38.446Z,4.72
2022-08-17T22:00:21.681Z,4.82
2022-08-17T22:03:00.936Z,4.68
2022-08-17T22:05:40.756Z,4.50
2022-08-17T22:08:24.832Z,4.60
2022-08-17T22:11:06.556Z,4.65
2022-08-17T22:13:41.222Z,5.03
2022-08-17T22:16:28.336Z,4.50
2022-08-17T22:19:00.626Z,4.50
2022-08-17T22:21:36.695Z,4.68
2022-08-17T22:24:22.920Z,4.72
2022-08-17T22:27:08.828Z,4.57
2022-08-17T22:29:47.825Z,4.60
2022-08-17T22:32:47.742Z,4.30
2022-08-17T22:35:39.836Z,4.50
2022-08-17T22:38:38.600Z,4.32
2022-08-17T22:41:45.106Z,4.22
2022-08-17T22:44:32.961Z,4.45
2022-08-17T22:47:43.280Z,4.40
2022-08-17T22:50:26.027Z,4.53
2022-08-17T22:53:22.001Z,4.43
2022-08-17T22:56:18.563Z,4.70
2022-08-17T22:59:13.551Z,4.05
2022-08-17T23:01:46.272Z,4.43
2022-08-17T23:04:47.542Z,4.63
2022-08-17T23:07:18.672Z,4.35
2022-08-17T23:09:49.143Z,4.43
2022-08-17T23:12:25.563Z,4.40
2022-08-17T23:15:00.953Z,4.30
2022-08-17T23:17:37.138Z,4.45
2022-08-17T23:20:13.587Z,4.40
2022-08-17T23:22:52.287Z,4.40
2022-08-17T23:25:33.347Z,4.78
2022-08-17T23:28:05.236Z,4.35
2022-08-17T23:30:35.807Z,4.40
2022-08-17T23:33:09.297Z,4.53
2022-08-17T23:35:39.116Z,4.53
2022-08-17T23:38:16.808Z,4.68
2022-08-17T23:40:48.303Z,4.63
2022-08-17T23:43:25.584Z,4.93
2022-08-17T23:45:58.638Z,5.03
2022-08-17T23:48:35.938Z,4.57
2022-08-17T23:51:20.662Z,5.20
2022-08-17T23:53:55.316Z,4.45
2022-08-17T23:56:26.402Z,4.45
2022-08-17T23:58:57.401Z,4.90
